Time;durP1;ratioP1;P1;durP2;ratioP2;P2;SDS_P1;SDS_P2;PMS_P1;PMS_P2;Temp;Humidity;BMP_temperature;BMP_pressure;BME280_temperature;BME280_humidity;BME280_pressure;Samples;Min_cycle;Max_cycle;Signal;HPM_P1;HPM_P2
2023/03/28 00:01:20;;;;;;;;;1.00;1.00;;;;;20.45;51.78;100331.23;109893;1268;19242;-69
2023/03/28 00:03:47;;;;;;;;;1.50;1.50;;;;;20.45;51.77;100329.63;109882;1268;20108;-69
2023/03/28 00:06:17;;;;;;;;;1.00;1.00;;;;;20.44;51.84;100325.84;109880;1268;21755;-70
2023/03/28 00:08:44;;;;;;;;;1.00;1.00;;;;;20.44;51.56;100319.17;109877;1253;19835;-69
2023/03/28 00:11:17;;;;;;;;;2.00;2.00;;;;;20.45;51.65;100321.65;109836;1259;20186;-69
2023/03/28 00:13:45;;;;;;;;;1.00;1.00;;;;;20.44;51.43;100321.31;109869;1268;19317;-71
2023/03/28 00:16:13;;;;;;;;;2.00;2.00;;;;;20.44;51.50;100320.02;109811;1252;20887;-70
2023/03/28 00:18:41;;;;;;;;;2.00;2.00;;;;;20.44;51.53;100316.02;109869;1253;22762;-70
2023/03/28 00:21:08;;;;;;;;;2.00;2.00;;;;;20.44;51.43;100315.19;109861;1268;19235;-70
2023/03/28 00:23:36;;;;;;;;;2.00;2.00;;;;;20.44;51.38;100313.67;109860;1253;22243;-70
2023/03/28 00:26:03;;;;;;;;;2.00;2.00;;;;;20.45;51.48;100312.02;109862;1253;21572;-70
2023/03/28 00:28:33;;;;;;;;;1.00;1.00;;;;;20.45;51.32;100305.50;109842;1253;19242;-71
2023/03/28 00:31:00;;;;;;;;;2.00;2.00;;;;;20.44;51.59;100305.23;109852;1268;23209;-71
2023/03/28 00:33:28;;;;;;;;;1.00;1.00;;;;;20.44;51.42;100304.69;109815;1268;23151;-69
2023/03/28 00:35:56;;;;;;;;;4.00;2.00;;;;;20.42;51.40;100306.30;109801;1260;19817;-71
2023/03/28 00:38:23;;;;;;;;;2.00;2.00;;;;;20.44;51.45;100304.53;109852;1268;19458;-70
2023/03/28 00:40:54;;;;;;;;;1.50;1.50;;;;;20.45;51.42;100300.95;109858;1252;23162;-70
2023/03/28 00:43:22;;;;;;;;;1.00;1.00;;;;;20.44;51.19;100303.31;109852;1268;19198;-71
2023/03/28 00:45:49;;;;;;;;;1.50;1.50;;;;;20.44;51.34;100301.16;109824;1268;19377;-69
2023/03/28 00:48:16;;;;;;;;;1.50;1.50;;;;;20.44;51.22;100298.33;109864;1268;20015;-70
2023/03/28 00:50:45;;;;;;;;;1.00;1.00;;;;;20.43;51.28;100298.05;109848;1260;19232;-70
2023/03/28 00:53:13;;;;;;;;;3.00;2.00;;;;;20.43;51.22;100298.81;109349;1254;19363;-70
2023/03/28 00:55:40;;;;;;;;;1.67;1.00;;;;;20.44;51.31;100296.89;109821;1268;20320;-71
2023/03/28 00:58:08;;;;;;;;;2.00;2.00;;;;;20.44;51.11;100296.85;109800;1260;19174;-70
2023/03/28 01:00:35;;;;;;;;;2.00;2.00;;;;;20.44;51.36;100300.45;109870;1253;22073;-71
2023/03/28 01:03:02;;;;;;;;;1.00;1.00;;;;;20.44;51.35;100301.25;109851;1253;23415;-70
2023/03/28 01:05:30;;;;;;;;;1.00;1.00;;;;;20.44;51.37;100297.57;109840;1261;20722;-70
2023/03/28 01:07:58;;;;;;;;;2.00;2.00;;;;;20.44;51.16;100300.84;109821;1268;19423;-70
2023/03/28 01:10:25;;;;;;;;;1.00;1.00;;;;;20.44;51.36;100302.71;109823;1268;20646;-71
2023/03/28 01:12:52;;;;;;;;;;;;;;;20.44;51.35;100303.01;109873;1260;19218;-71
2023/03/28 01:15:20;;;;;;;;;1.00;1.00;;;;;20.43;51.24;100304.21;109852;1268;20796;-71
2023/03/28 01:17:49;;;;;;;;;;;;;;;20.43;51.26;100301.08;109829;1268;20162;-70
2023/03/28 01:20:17;;;;;;;;;2.00;2.00;;;;;20.42;51.21;100294.70;109818;1268;19422;-71
2023/03/28 01:22:44;;;;;;;;;2.00;2.00;;;;;20.43;51.06;100295.92;109878;1253;20915;-70
2023/03/28 01:25:12;;;;;;;;;1.00;1.00;;;;;20.43;51.06;100294.79;109838;1268;20209;-70
2023/03/28 01:27:40;;;;;;;;;4.00;2.00;;;;;20.42;51.18;100296.84;109787;1253;23631;-71
2023/03/28 01:30:07;;;;;;;;;1.00;1.00;;;;;20.42;51.10;100287.50;109832;1268;22998;-71
2023/03/28 01:32:34;;;;;;;;;1.00;1.00;;;;;20.43;50.97;100292.08;109836;1253;20155;-71
2023/03/28 01:35:02;;;;;;;;;1.50;1.00;;;;;20.42;50.97;100290.72;109888;1253;19709;-70
2023/03/28 01:37:30;;;;;;;;;1.00;1.00;;;;;20.40;50.96;100284.59;109855;1268;19676;-70
2023/03/28 01:39:58;;;;;;;;;1.00;1.00;;;;;20.41;51.08;100282.16;109824;1253;21693;-70
2023/03/28 01:42:25;;;;;;;;;1.00;1.00;;;;;20.42;50.90;100276.42;109815;1253;19664;-70
2023/03/28 01:44:52;;;;;;;;;1.00;1.00;;;;;20.41;51.03;100276.30;109852;1268;20625;-71
2023/03/28 01:47:20;;;;;;;;;1.00;1.00;;;;;20.41;51.09;100273.87;109864;1268;21516;-71
2023/03/28 01:49:47;;;;;;;;;2.00;2.00;;;;;20.40;50.76;100269.17;109823;1253;22648;-70
2023/03/28 01:52:14;;;;;;;;;1.50;1.00;;;;;20.41;51.02;100268.17;109806;1253;20847;-70
2023/03/28 01:54:42;;;;;;;;;2.00;1.33;;;;;20.41;50.97;100265.50;109814;1268;20248;-71
2023/03/28 01:57:10;;;;;;;;;1.00;1.00;;;;;20.40;50.88;100264.31;109839;1253;19631;-71
2023/03/28 01:59:37;;;;;;;;;1.00;1.00;;;;;20.40;50.98;100268.45;109846;1268;19388;-70
2023/03/28 02:02:05;;;;;;;;;1.00;1.00;;;;;20.41;50.94;100266.58;109844;1261;20050;-70
2023/03/28 02:04:32;;;;;;;;;1.00;1.00;;;;;20.41;50.88;100262.27;109862;1253;23454;-71
2023/03/28 02:07:00;;;;;;;;;1.00;1.00;;;;;20.41;50.85;100263.08;109871;1268;19503;-71
2023/03/28 02:09:28;;;;;;;;;1.00;1.00;;;;;20.41;50.83;100260.60;109846;1253;23938;-70
2023/03/28 02:11:55;;;;;;;;;1.00;1.00;;;;;20.42;50.92;100262.48;109867;1268;22964;-71
2023/03/28 02:14:23;;;;;;;;;1.00;1.00;;;;;20.41;50.87;100260.52;109883;1260;20778;-70
2023/03/28 02:16:50;;;;;;;;;1.00;1.00;;;;;20.40;50.84;100258.46;109877;1268;21504;-70
2023/03/28 02:19:18;;;;;;;;;1.00;1.00;;;;;20.41;50.67;100258.04;109845;1268;23486;-70
2023/03/28 02:21:45;;;;;;;;;2.00;1.00;;;;;20.41;50.88;100255.70;109843;1259;24244;-71
2023/03/28 02:24:13;;;;;;;;;1.00;1.00;;;;;20.40;50.70;100251.58;109854;1253;23218;-71
2023/03/28 02:26:40;;;;;;;;;2.00;2.00;;;;;20.41;50.88;100248.23;109783;1253;19689;-70
2023/03/28 02:29:08;;;;;;;;;2.00;1.00;;;;;20.40;50.97;100247.77;109823;1253;20713;-71
2023/03/28 02:31:35;;;;;;;;;1.00;1.00;;;;;20.41;50.60;100244.47;109810;1253;21546;-72
2023/03/28 02:34:03;;;;;;;;;1.00;1.00;;;;;20.39;50.83;100245.40;109824;1253;19690;-70
2023/03/28 02:36:30;;;;;;;;;1.00;1.00;;;;;20.39;50.55;100246.86;109848;1268;19535;-70
2023/03/28 02:38:57;;;;;;;;;2.00;2.00;;;;;20.39;50.68;100239.08;109879;1253;21569;-70
2023/03/28 02:41:26;;;;;;;;;1.00;1.00;;;;;20.39;50.79;100239.20;109839;1268;19187;-70
2023/03/28 02:43:53;;;;;;;;;1.00;1.00;;;;;20.39;50.77;100241.92;109850;1268;23039;-71
2023/03/28 02:46:20;;;;;;;;;1.00;1.00;;;;;20.39;50.68;100239.43;109849;1253;21632;-70
2023/03/28 02:48:48;;;;;;;;;1.00;1.00;;;;;20.39;50.75;100235.98;109827;1253;20845;-71
2023/03/28 02:51:16;;;;;;;;;1.00;1.00;;;;;20.39;50.70;100235.05;109818;1268;19384;-70
2023/03/28 02:53:44;;;;;;;;;1.00;1.00;;;;;20.38;50.70;100237.85;109863;1268;23023;-71
2023/03/28 02:56:13;;;;;;;;;2.00;2.00;;;;;20.38;50.59;100240.54;109855;1253;19815;-71
2023/03/28 02:58:41;;;;;;;;;1.00;1.00;;;;;20.39;50.64;100239.95;109856;1268;20992;-72
2023/03/28 03:01:09;;;;;;;;;2.00;1.00;;;;;20.39;50.65;100237.05;109812;1253;22764;-70
2023/03/28 03:03:36;;;;;;;;;1.00;1.00;;;;;20.38;50.56;100235.83;109867;1253;23507;-71
2023/03/28 03:06:03;;;;;;;;;1.00;1.00;;;;;20.38;50.74;100236.05;109858;1253;23601;-70
2023/03/28 03:08:31;;;;;;;;;1.00;1.00;;;;;20.39;50.70;100239.06;109871;1254;20189;-71
2023/03/28 03:10:58;;;;;;;;;1.00;1.00;;;;;20.39;50.48;100241.25;109846;1268;19600;-71
2023/03/28 03:13:26;;;;;;;;;1.00;1.00;;;;;20.38;50.61;100240.06;109821;1260;19377;-71
2023/03/28 03:15:54;;;;;;;;;1.00;1.00;;;;;20.39;50.50;100240.36;109811;1253;22757;-70
2023/03/28 03:18:22;;;;;;;;;1.00;1.00;;;;;20.38;50.54;100242.74;109807;1253;19715;-71
2023/03/28 03:20:49;;;;;;;;;1.00;1.00;;;;;20.39;50.60;100241.17;109844;1260;19722;-71
2023/03/28 03:23:17;;;;;;;;;1.00;1.00;;;;;20.38;50.57;100247.81;109830;1253;21891;-71
2023/03/28 03:25:44;;;;;;;;;1.00;1.00;;;;;20.40;50.40;100247.69;109841;1253;19666;-71
2023/03/28 03:28:11;;;;;;;;;1.00;1.00;;;;;20.39;50.57;100247.07;109842;1268;19360;-72
2023/03/28 03:30:39;;;;;;;;;1.00;1.00;;;;;20.39;50.61;100255.36;109836;1260;20154;-71
2023/03/28 03:33:09;;;;;;;;;1.00;1.00;;;;;20.39;50.54;100254.14;109835;1253;20001;-70
2023/03/28 03:35:36;;;;;;;;;1.00;1.00;;;;;20.38;50.52;100257.65;109822;1268;19360;-71
2023/03/28 03:38:04;;;;;;;;;1.00;1.00;;;;;20.38;50.52;100259.80;109866;1253;23049;-71
2023/03/28 03:40:31;;;;;;;;;1.00;1.00;;;;;20.37;50.43;100260.11;109870;1268;19213;-71
2023/03/28 03:42:58;;;;;;;;;1.00;1.00;;;;;20.38;50.44;100258.52;109874;1268;19309;-71
2023/03/28 03:45:26;;;;;;;;;1.00;1.00;;;;;20.38;50.47;100257.45;109845;1268;22554;-72
2023/03/28 03:47:53;;;;;;;;;2.00;1.00;;;;;20.38;50.34;100254.42;109868;1268;19311;-70
2023/03/28 03:50:20;;;;;;;;;1.00;1.00;;;;;20.38;50.35;100257.73;109870;1253;23042;-72
2023/03/28 03:52:48;;;;;;;;;1.00;1.00;;;;;20.37;50.46;100255.80;109875;1268;20126;-71
2023/03/28 03:55:15;;;;;;;;;1.00;1.00;;;;;20.36;50.65;100254.95;109887;1268;20395;-72
2023/03/28 03:57:42;;;;;;;;;1.00;1.00;;;;;20.37;50.39;100260.36;109858;1252;23083;-71
2023/03/28 04:00:11;;;;;;;;;1.00;1.00;;;;;20.37;50.60;100260.52;109847;1254;22143;-71
2023/03/28 04:02:38;;;;;;;;;1.00;1.00;;;;;20.37;50.57;100259.84;109911;1268;21077;-70
2023/03/28 04:05:07;;;;;;;;;1.00;1.00;;;;;20.36;50.56;100261.73;109877;1268;19658;-72
2023/03/28 04:07:34;;;;;;;;;1.00;1.00;;;;;20.36;50.57;100261.02;109865;1260;20108;-71
2023/03/28 04:10:01;;;;;;;;;2.00;2.00;;;;;20.37;50.38;100264.37;109854;1253;19795;-71
2023/03/28 04:12:29;;;;;;;;;1.00;1.00;;;;;20.36;50.43;100263.94;109851;1268;21022;-71
2023/03/28 04:14:56;;;;;;;;;1.00;1.00;;;;;20.36;50.60;100269.73;109848;1268;23075;-71
2023/03/28 04:17:28;;;;;;;;;1.00;1.00;;;;;20.37;50.59;100270.70;109333;1254;23040;-71
2023/03/28 04:19:56;;;;;;;;;1.00;1.00;;;;;20.36;50.43;100274.97;109835;1253;22964;-72
2023/03/28 04:22:28;;;;;;;;;1.00;1.00;;;;;20.37;50.39;100276.52;109833;1253;21617;-71
2023/03/28 04:24:56;;;;;;;;;1.00;1.00;;;;;20.37;50.53;100284.14;109809;1253;19717;-73
2023/03/28 04:27:25;;;;;;;;;1.00;1.00;;;;;20.37;50.28;100287.79;109848;1253;20800;-71
2023/03/28 04:29:53;;;;;;;;;1.00;1.00;;;;;20.37;50.51;100286.52;109913;1268;21405;-71
2023/03/28 04:32:20;;;;;;;;;1.00;1.00;;;;;20.37;50.26;100289.79;109820;1260;19170;-71
2023/03/28 04:34:49;;;;;;;;;1.00;1.00;;;;;20.37;50.36;100292.08;109838;1268;19382;-71
2023/03/28 04:37:17;;;;;;;;;1.00;1.00;;;;;20.37;50.48;100294.69;109891;1253;21732;-71
2023/03/28 04:39:45;;;;;;;;;1.00;1.00;;;;;20.36;50.30;100296.40;109876;1253;22300;-72
2023/03/28 04:42:13;;;;;;;;;1.00;1.00;;;;;20.36;50.32;100303.44;109819;1253;22265;-71
2023/03/28 04:44:40;;;;;;;;;1.00;1.00;;;;;20.36;50.54;100304.11;109803;1268;20183;-71
2023/03/28 04:47:10;;;;;;;;;1.00;1.00;;;;;20.36;50.36;100306.16;109830;1260;19183;-71
2023/03/28 04:49:38;;;;;;;;;;;;;;;20.36;50.44;100314.34;109798;1253;19700;-70
2023/03/28 04:52:05;;;;;;;;;1.00;1.00;;;;;20.35;50.33;100320.13;109830;1254;21581;-71
2023/03/28 04:54:32;;;;;;;;;1.00;1.00;;;;;20.35;50.33;100324.81;109848;1253;19344;-71
2023/03/28 04:57:01;;;;;;;;;1.00;1.00;;;;;20.35;50.41;100331.52;109823;1268;19289;-71
2023/03/28 04:59:28;;;;;;;;;1.00;1.00;;;;;20.35;50.51;100340.90;109839;1268;20167;-71
2023/03/28 05:01:56;;;;;;;;;1.00;1.00;;;;;20.35;50.47;100344.08;109865;1252;19672;-72
2023/03/28 05:04:25;;;;;;;;;1.00;1.00;;;;;20.36;50.47;100358.46;109899;1254;19468;-71
2023/03/28 05:06:52;;;;;;;;;1.00;1.00;;;;;20.35;50.36;100362.01;109860;1268;21580;-71
2023/03/28 05:09:21;;;;;;;;;1.00;1.00;;;;;20.35;50.48;100371.80;109900;1252;20331;-71
2023/03/28 05:11:49;;;;;;;;;1.00;1.00;;;;;20.35;50.61;100379.02;109913;1253;23493;-72
2023/03/28 05:14:17;;;;;;;;;1.00;1.00;;;;;20.34;50.45;100386.06;109851;1253;21608;-71
2023/03/28 05:16:44;;;;;;;;;1.00;1.00;;;;;20.35;50.39;100399.23;109876;1253;19215;-73
2023/03/28 05:19:11;;;;;;;;;1.00;1.00;;;;;20.35;50.38;100402.83;109840;1268;22865;-72
2023/03/28 05:21:39;;;;;;;;;1.00;1.00;;;;;20.35;50.28;100408.83;109861;1268;20281;-74
2023/03/28 05:24:07;;;;;;;;;1.00;1.00;;;;;20.38;50.33;100424.27;109878;1253;19627;-72
2023/03/28 05:26:35;;;;;;;;;1.00;1.00;;;;;20.40;50.58;100431.23;109892;1253;22144;-71
2023/03/28 05:29:02;;;;;;;;;1.00;1.00;;;;;20.43;50.68;100434.91;109833;1268;20392;-72
2023/03/28 05:31:30;;;;;;;;;1.00;1.00;;;;;20.44;50.90;100440.05;109818;1253;19652;-72
2023/03/28 05:33:57;;;;;;;;;1.00;1.00;;;;;20.44;50.88;100446.23;109814;1268;23132;-72
2023/03/28 05:36:25;;;;;;;;;7.00;7.00;;;;;20.46;50.78;100454.48;109842;1253;21604;-71
2023/03/28 05:38:52;;;;;;;;;5.00;5.00;;;;;20.50;50.93;100460.17;109787;1268;23415;-71
2023/03/28 05:41:19;;;;;;;;;5.00;5.00;;;;;20.52;51.35;100466.83;109851;1268;23100;-72
2023/03/28 05:43:47;;;;;;;;;13.00;13.00;;;;;20.55;52.33;100472.86;109884;1268;20089;-71
2023/03/28 05:46:14;;;;;;;;;13.00;13.00;;;;;20.58;53.52;100476.73;109829;1268;19331;-72
2023/03/28 05:48:42;;;;;;;;;10.00;9.00;;;;;20.60;53.90;100481.08;109821;1253;22107;-72
2023/03/28 05:51:09;;;;;;;;;7.00;7.00;;;;;20.59;53.51;100489.11;109851;1268;23189;-72
2023/03/28 05:53:36;;;;;;;;;7.00;7.00;;;;;20.58;53.14;100491.85;109861;1260;23869;-73
2023/03/28 05:56:04;;;;;;;;;5.00;5.00;;;;;20.57;53.27;100499.88;109860;1268;19454;-72
2023/03/28 05:58:31;;;;;;;;;4.00;4.00;;;;;20.57;53.17;100498.14;109813;1268;20371;-72
2023/03/28 06:01:00;;;;;;;;;5.00;4.00;;;;;20.53;53.16;100506.14;109822;1263;19221;-71
2023/03/28 06:03:30;;;;;;;;;2.00;2.00;;;;;20.53;53.05;100511.20;109861;1253;23508;-71
2023/03/28 06:05:58;;;;;;;;;2.00;2.00;;;;;20.56;52.91;100520.67;109911;1253;21515;-71
2023/03/28 06:08:26;;;;;;;;;4.00;4.00;;;;;20.54;52.66;100525.09;109830;1253;23394;-71
2023/03/28 06:10:55;;;;;;;;;2.00;2.00;;;;;20.51;52.93;100529.96;109892;1253;23494;-71
2023/03/28 06:13:23;;;;;;;;;2.00;2.00;;;;;20.49;52.99;100536.34;109841;1268;22391;-71
2023/03/28 06:15:50;;;;;;;;;2.00;2.00;;;;;20.51;53.09;100546.64;109876;1253;22216;-71
2023/03/28 06:18:18;;;;;;;;;4.00;4.00;;;;;20.57;52.60;100550.52;109876;1260;19726;-71
2023/03/28 06:20:45;;;;;;;;;1.00;1.00;;;;;20.63;52.45;100557.30;109863;1260;22800;-71
2023/03/28 06:23:12;;;;;;;;;1.00;1.00;;;;;20.68;52.51;100560.36;109848;1253;23454;-71
2023/03/28 06:25:40;;;;;;;;;1.00;1.00;;;;;20.71;52.34;100568.84;109835;1268;20722;-71
2023/03/28 06:28:07;;;;;;;;;1.00;1.00;;;;;20.74;52.18;100577.56;109821;1253;20155;-72
2023/03/28 06:30:34;;;;;;;;;1.50;1.00;;;;;20.74;51.90;100581.42;109837;1268;20428;-71
2023/03/28 06:33:02;;;;;;;;;1.50;1.50;;;;;20.70;51.85;100580.19;109848;1268;19355;-71
2023/03/28 06:35:29;;;;;;;;;2.00;2.00;;;;;20.68;51.82;100587.55;109882;1268;20108;-71
2023/03/28 06:37:57;;;;;;;;;2.00;2.00;;;;;20.65;51.87;100588.98;109855;1253;19216;-71
2023/03/28 06:40:25;;;;;;;;;2.00;2.00;;;;;20.63;51.79;100598.34;109861;1268;20839;-72
2023/03/28 06:42:52;;;;;;;;;2.00;2.00;;;;;20.63;51.74;100605.45;109865;1253;20157;-72
2023/03/28 06:45:20;;;;;;;;;1.00;1.00;;;;;20.66;51.60;100606.30;109853;1253;21143;-71
2023/03/28 06:47:47;;;;;;;;;2.00;2.00;;;;;20.72;51.46;100613.23;109842;1268;19367;-72
2023/03/28 06:50:15;;;;;;;;;1.00;1.00;;;;;20.72;51.34;100623.45;109869;1253;21536;-71
2023/03/28 06:52:42;;;;;;;;;1.00;1.00;;;;;20.72;51.46;100631.89;109882;1253;19942;-71
2023/03/28 06:55:10;;;;;;;;;2.00;1.00;;;;;20.78;51.21;100635.19;109836;1253;19445;-71
2023/03/28 06:57:37;;;;;;;;;2.00;2.00;;;;;20.82;50.91;100643.86;109851;1268;20252;-70
2023/03/28 07:00:06;;;;;;;;;2.00;2.00;;;;;20.87;50.81;100651.11;109845;1268;23168;-70
2023/03/28 07:02:33;;;;;;;;;2.00;2.00;;;;;20.91;50.47;100658.16;109884;1253;21234;-75
2023/03/28 07:05:00;;;;;;;;;3.00;3.00;;;;;20.91;50.37;100664.70;109864;1268;20646;-72
2023/03/28 07:07:28;;;;;;;;;5.00;4.00;;;;;20.87;49.96;100667.59;109837;1253;23193;-69
2023/03/28 07:09:55;;;;;;;;;4.00;4.00;;;;;20.82;48.45;100666.19;109851;1268;19387;-72
2023/03/28 07:12:22;;;;;;;;;5.00;4.00;;;;;20.85;48.21;100673.45;109913;1268;20110;-68
2023/03/28 07:14:50;;;;;;;;;2.00;2.00;;;;;20.88;48.22;100677.02;109887;1253;23410;-68
2023/03/28 07:17:17;;;;;;;;;4.00;4.00;;;;;20.90;48.73;100680.30;109863;1268;19410;-78
2023/03/28 07:19:47;;;;;;;;;7.00;4.00;;;;;20.90;48.84;100681.44;109935;1268;20115;-78
2023/03/28 07:22:15;;;;;;;;;7.00;5.00;;;;;20.88;48.02;100680.91;109828;1254;19143;-77
2023/03/28 07:24:44;;;;;;;;;8.00;7.67;;;;;20.86;46.87;100692.20;109819;1268;19292;-76
2023/03/28 07:27:11;;;;;;;;;7.00;5.00;;;;;20.86;45.99;100702.05;109868;1260;21503;-76
2023/03/28 07:29:38;;;;;;;;;6.00;5.00;;;;;20.85;45.12;100704.88;109860;1268;22738;-72
2023/03/28 07:32:06;;;;;;;;;8.00;8.00;;;;;20.81;44.84;100707.13;109865;1253;20936;-71
2023/03/28 07:34:33;;;;;;;;;8.00;8.00;;;;;20.79;43.71;100708.05;109870;1268;20146;-70
2023/03/28 07:37:01;;;;;;;;;8.00;7.50;;;;;20.81;43.50;100718.23;109880;1253;19650;-77
2023/03/28 07:39:28;;;;;;;;;8.00;8.00;;;;;20.79;43.52;100725.89;109893;1268;19724;-78
2023/03/28 07:41:56;;;;;;;;;7.00;7.00;;;;;20.62;41.39;100726.27;109852;1268;23583;-78
2023/03/28 07:44:23;;;;;;;;;8.00;7.00;;;;;20.51;39.46;100729.81;109805;1260;19628;-79
2023/03/28 07:46:51;;;;;;;;;7.00;6.00;;;;;20.51;38.61;100733.81;109849;1268;19455;-80
2023/03/28 07:49:20;;;;;;;;;8.00;8.00;;;;;20.43;36.99;100732.38;109832;1268;20130;-79
2023/03/28 07:51:47;;;;;;;;;8.00;8.00;;;;;20.37;35.84;100729.05;109348;1268;23283;-79
2023/03/28 07:54:17;;;;;;;;;7.00;7.00;;;;;20.31;35.20;100737.94;109824;1268;19365;-79
2023/03/28 07:56:44;;;;;;;;;7.00;7.00;;;;;20.18;34.34;100735.04;109872;1268;21703;-80
2023/03/28 07:59:13;;;;;;;;;6.00;6.00;;;;;20.13;33.82;100744.81;109843;1253;20940;-78
2023/03/28 08:01:40;;;;;;;;;6.00;6.00;;;;;20.12;33.08;100747.13;109871;1268;20760;-77
2023/03/28 08:04:08;;;;;;;;;6.00;6.00;;;;;20.12;32.84;100749.27;110041;1254;20214;-78
2023/03/28 08:06:36;;;;;;;;;6.00;6.00;;;;;20.09;32.46;100746.73;110059;1268;19146;-78
2023/03/28 08:09:05;;;;;;;;;4.00;4.00;;;;;20.09;32.26;100754.56;110106;1253;22625;-78
2023/03/28 08:11:33;;;;;;;;;6.00;6.00;;;;;20.06;31.87;100758.67;110124;1268;21693;-78
2023/03/28 08:14:01;;;;;;;;;6.00;6.00;;;;;20.04;31.48;100759.28;110111;1268;19212;-78
2023/03/28 08:16:28;;;;;;;;;7.00;6.00;;;;;20.02;31.04;100768.73;110049;1268;19387;-78
2023/03/28 08:18:56;;;;;;;;;4.00;4.00;;;;;20.02;30.78;100768.19;109900;1268;20300;-78
2023/03/28 08:21:24;;;;;;;;;4.00;4.00;;;;;20.00;30.32;100768.61;109988;1268;19082;-78
2023/03/28 08:23:52;;;;;;;;;4.00;4.00;;;;;19.98;30.26;100775.85;110152;1268;19412;-78
2023/03/28 08:26:20;;;;;;;;;6.33;6.33;;;;;19.95;29.92;100779.11;109926;1253;192369;-78
2023/03/28 08:28:48;;;;;;;;;6.33;6.00;;;;;19.89;29.86;100785.61;109880;1253;19723;-77
2023/03/28 08:31:15;;;;;;;;;5.00;5.00;;;;;19.78;29.58;100789.80;109938;1252;23013;-78
2023/03/28 08:33:42;;;;;;;;;6.00;6.00;;;;;19.72;29.55;100794.60;110086;1268;20158;-78
2023/03/28 08:36:13;;;;;;;;;6.00;6.00;;;;;19.75;29.78;100792.45;109804;1268;20235;-78
2023/03/28 08:38:40;;;;;;;;;4.00;4.00;;;;;19.70;29.50;100796.83;109608;1268;19551;-78
2023/03/28 08:41:08;;;;;;;;;4.00;4.00;;;;;19.67;29.47;100796.95;109630;1268;22648;-77
2023/03/28 08:43:35;;;;;;;;;6.00;4.00;;;;;19.65;29.24;100800.09;109576;1268;19370;-79
2023/03/28 08:46:03;;;;;;;;;6.00;6.00;;;;;19.63;29.16;100808.41;109301;1269;23014;-79
2023/03/28 08:48:30;;;;;;;;;4.00;4.00;;;;;19.61;29.04;100808.15;109512;1269;20128;-78
2023/03/28 08:50:57;;;;;;;;;6.00;4.00;;;;;19.57;28.95;100806.73;109548;1269;22475;-77
2023/03/28 08:53:25;;;;;;;;;4.00;4.00;;;;;19.55;29.05;100817.64;109634;1269;19519;-78
2023/03/28 08:55:52;;;;;;;;;4.00;4.00;;;;;19.51;28.76;100814.77;109603;1268;20532;-78
2023/03/28 08:58:22;;;;;;;;;;;;;;;19.44;28.69;100821.73;109512;1268;19395;-78
2023/03/28 09:00:49;;;;;;;;;3.50;3.50;;;;;19.29;27.78;100832.92;109567;1260;21503;-71
2023/03/28 09:03:16;;;;;;;;;3.00;3.00;;;;;19.32;28.19;100831.68;109526;1268;20224;-68
2023/03/28 09:05:44;;;;;;;;;3.00;3.00;;;;;19.51;28.97;100840.58;109488;1253;19085;-68
2023/03/28 09:08:12;;;;;;;;;6.00;4.00;;;;;19.67;29.95;100845.20;109468;1254;20790;-67
2023/03/28 09:10:39;;;;;;;;;3.00;3.00;;;;;19.82;30.44;100852.77;109491;1268;21594;-68
2023/03/28 09:13:06;;;;;;;;;3.00;3.00;;;;;19.89;30.69;100855.42;109486;1254;19671;-69
2023/03/28 09:15:34;;;;;;;;;3.00;3.00;;;;;19.98;31.23;100853.48;109513;1268;20726;-68
2023/03/28 09:18:01;;;;;;;;;6.00;4.00;;;;;20.07;31.82;100861.95;109334;1263;23479;-67
2023/03/28 09:20:28;;;;;;;;;3.00;3.00;;;;;20.08;31.97;100868.08;109571;1268;19306;-69
2023/03/28 09:22:56;;;;;;;;;3.00;3.00;;;;;19.93;31.26;100869.81;109384;1264;19565;-74
2023/03/28 09:25:23;;;;;;;;;4.00;4.00;;;;;19.85;31.37;100877.95;109537;1253;20045;-72
2023/03/28 09:27:51;;;;;;;;;4.00;4.00;;;;;19.79;30.91;100874.35;109303;1269;19482;-70
2023/03/28 09:30:19;;;;;;;;;4.00;4.00;;;;;19.77;31.32;100877.77;109505;1269;19427;-70
2023/03/28 09:32:48;;;;;;;;;3.50;3.50;;;;;19.83;31.88;100880.39;109568;1254;21720;-69
2023/03/28 09:35:15;;;;;;;;;4.00;4.00;;;;;19.92;32.86;100881.23;109478;1269;19222;-70
2023/03/28 09:37:43;;;;;;;;;3.00;3.00;;;;;19.99;33.30;100878.66;109479;1268;22515;-69
2023/03/28 09:40:10;;;;;;;;;6.00;4.00;;;;;20.03;33.53;100884.20;109519;1254;21626;-69
2023/03/28 09:42:38;;;;;;;;;3.00;3.00;;;;;20.08;33.82;100881.15;109534;1253;19260;-68
2023/03/28 09:45:05;;;;;;;;;1.00;1.00;;;;;20.11;34.27;100895.45;109510;1269;19490;-70
2023/03/28 09:47:32;;;;;;;;;3.00;3.00;;;;;20.14;34.99;100897.13;109594;1254;23119;-68
2023/03/28 09:50:00;;;;;;;;;7.00;4.00;;;;;20.15;35.45;100893.05;109554;1254;23195;-68
2023/03/28 09:52:27;;;;;;;;;1.00;1.00;;;;;20.18;35.55;100897.05;109516;1268;19228;-68
2023/03/28 09:54:54;;;;;;;;;3.00;1.00;;;;;20.22;35.86;100895.52;109505;1268;21570;-68
2023/03/28 09:57:22;;;;;;;;;3.00;3.00;;;;;20.24;36.30;100892.42;109491;1268;19309;-68
2023/03/28 09:59:49;;;;;;;;;2.00;1.00;;;;;20.24;36.73;100900.30;109498;1262;20840;-68
2023/03/28 10:02:16;;;;;;;;;1.00;1.00;;;;;20.23;36.61;100904.70;109464;1263;20186;-68
2023/03/28 10:04:44;;;;;;;;;3.00;3.00;;;;;20.19;36.96;100900.91;109485;1263;19216;-69
2023/03/28 10:07:11;;;;;;;;;2.00;2.00;;;;;20.19;36.92;100902.38;109528;1268;21039;-68
2023/03/28 10:09:39;;;;;;;;;1.00;1.00;;;;;20.17;37.24;100902.08;109534;1268;21527;-68
2023/03/28 10:12:06;;;;;;;;;1.00;1.00;;;;;20.18;37.14;100907.89;109524;1269;21607;-69
2023/03/28 10:14:33;;;;;;;;;1.00;1.00;;;;;20.20;37.53;100910.08;109511;1268;23362;-69
2023/03/28 10:17:01;;;;;;;;;2.00;2.00;;;;;20.21;37.52;100909.25;109516;1269;21514;-69
2023/03/28 10:19:30;;;;;;;;;1.00;1.00;;;;;20.19;37.85;100919.42;109455;1268;19303;-69
2023/03/28 10:21:58;;;;;;;;;2.33;1.00;;;;;20.17;38.00;100921.30;109474;1269;19350;-69
2023/03/28 10:24:25;;;;;;;;;1.00;1.00;;;;;20.17;38.03;100920.05;109495;1261;20192;-69
2023/03/28 10:26:53;;;;;;;;;3.00;1.00;;;;;20.17;38.24;100918.20;109509;1269;19185;-69
2023/03/28 10:29:20;;;;;;;;;1.00;1.00;;;;;20.18;38.48;100926.57;109501;1253;23622;-69
2023/03/28 10:31:48;;;;;;;;;1.00;1.00;;;;;20.19;38.50;100922.12;109504;1269;20386;-69
2023/03/28 10:34:16;;;;;;;;;1.00;1.00;;;;;20.18;38.58;100922.87;109508;1253;19728;-69
2023/03/28 10:36:43;;;;;;;;;1.00;1.00;;;;;20.17;38.74;100926.13;109520;1268;23509;-69
2023/03/28 10:39:10;;;;;;;;;1.00;1.00;;;;;20.18;38.85;100929.73;109520;1254;21677;-69
2023/03/28 10:41:38;;;;;;;;;3.00;3.00;;;;;20.18;38.98;100933.52;109540;1269;19166;-68
2023/03/28 10:44:05;;;;;;;;;1.50;1.50;;;;;20.19;39.11;100940.89;109502;1268;19561;-68
2023/03/28 10:46:33;;;;;;;;;3.00;3.00;;;;;20.19;39.37;100943.75;109479;1269;20510;-68
2023/03/28 10:49:00;;;;;;;;;1.00;1.00;;;;;20.18;39.44;100944.98;109465;1269;19176;-68
2023/03/28 10:51:27;;;;;;;;;3.00;1.00;;;;;20.20;39.61;100955.83;109532;1261;20738;-68
2023/03/28 10:53:55;;;;;;;;;1.00;1.00;;;;;20.20;39.58;100956.14;109530;1253;20227;-68
2023/03/28 10:56:22;;;;;;;;;1.00;1.00;;;;;20.21;39.46;100962.16;109498;1254;20819;-67
2023/03/28 10:58:49;;;;;;;;;1.00;1.00;;;;;20.22;39.61;100959.55;109514;1269;21868;-67
2023/03/28 11:01:18;;;;;;;;;1.00;1.00;;;;;20.22;39.62;100961.59;109540;1254;21579;-67
2023/03/28 11:03:45;;;;;;;;;1.67;1.67;;;;;20.21;39.64;100960.25;109541;1262;20127;-68
2023/03/28 11:06:13;;;;;;;;;3.00;3.00;;;;;20.21;39.79;100959.36;109542;1254;22030;-70
2023/03/28 11:08:40;;;;;;;;;1.00;1.00;;;;;20.18;39.89;100959.77;109568;1269;20172;-68
2023/03/28 11:11:08;;;;;;;;;1.00;1.00;;;;;20.19;39.85;100964.64;109500;1253;20796;-67
2023/03/28 11:13:35;;;;;;;;;3.00;3.00;;;;;20.18;39.90;100972.13;109476;1269;20870;-69
2023/03/28 11:16:02;;;;;;;;;1.00;1.00;;;;;20.20;40.01;100990.95;109466;1268;21489;-68
2023/03/28 11:18:29;;;;;;;;;3.00;3.00;;;;;20.20;40.14;101003.65;109480;1269;19314;-68